Time;durP1;ratioP1;P1;durP2;ratioP2;P2;SDS_P1;SDS_P2;PMS_P1;PMS_P2;Temp;Humidity;BMP_temperature;BMP_pressure;BME280_temperature;BME280_humidity;BME280_pressure;Samples;Min_cycle;Max_cycle;Signal;HPM_P1;HPM_P2
2023/02/14 00:00:49;;;;;;;4.28;4.07;;;0.80;98.00;;;;;;6067485;23;20787;-76
2023/02/14 00:03:16;;;;;;;4.40;4.15;;;0.70;98.20;;;;;;6066481;23;20381;-77
2023/02/14 00:05:43;;;;;;;4.40;4.20;;;0.60;99.00;;;;;;6067435;23;20747;-76
2023/02/14 00:08:10;;;;;;;6.60;6.20;;;0.60;99.70;;;;;;6066466;23;20377;-76
2023/02/14 00:10:36;;;;;;;5.80;5.50;;;0.40;99.90;;;;;;6092714;23;20945;-76
2023/02/14 00:13:04;;;;;;;5.65;5.35;;;0.40;99.90;;;;;;6067408;23;20420;-76
2023/02/14 00:15:30;;;;;;;5.20;4.90;;;0.50;99.90;;;;;;6091533;23;20408;-76
2023/02/14 00:18:01;;;;;;;4.93;4.65;;;0.50;99.90;;;;;;6067768;23;20453;-76
2023/02/14 00:20:28;;;;;;;5.20;4.90;;;0.50;99.90;;;;;;6066315;23;20381;-76
2023/02/14 00:22:55;;;;;;;5.03;4.75;;;0.50;99.90;;;;;;6066853;23;20377;-76
2023/02/14 00:25:22;;;;;;;4.80;4.60;;;0.50;99.90;;;;;;6091316;23;20805;-76
2023/02/14 00:27:49;;;;;;;5.13;4.82;;;0.50;99.90;;;;;;6067548;23;20760;-76
2023/02/14 00:30:16;;;;;;;5.10;4.80;;;0.50;99.90;;;;;;6091574;23;20374;-76
2023/02/14 00:32:43;;;;;;;4.80;4.50;;;0.50;99.70;;;;;;6092515;23;20853;-75
2023/02/14 00:35:10;;;;;;;4.45;4.25;;;0.40;99.90;;;;;;6066077;23;20405;-76
2023/02/14 00:37:37;;;;;;;4.65;4.43;;;0.40;99.90;;;;;;6092245;23;20373;-76
2023/02/14 00:40:05;;;;;;;4.65;4.35;;;0.40;99.90;;;;;;6092346;23;20718;-76
2023/02/14 00:42:32;;;;;;;4.25;4.05;;;0.40;99.90;;;;;;6091500;23;20377;-76
2023/02/14 00:44:59;;;;;;;4.72;4.43;;;0.40;99.90;;;;;;6092166;23;20449;-76
2023/02/14 00:47:26;;;;;;;4.45;4.25;;;0.30;99.90;;;;;;6066118;23;20377;-75
2023/02/14 00:49:53;;;;;;;4.68;4.38;;;0.20;99.90;;;;;;6092497;23;20427;-75
2023/02/14 00:52:20;;;;;;;4.47;4.28;;;0.20;99.90;;;;;;6067406;23;20919;-76
2023/02/14 00:54:47;;;;;;;4.38;4.18;;;0.30;99.90;;;;;;6068957;23;20393;-76
2023/02/14 00:57:14;;;;;;;4.80;4.50;;;0.30;99.90;;;;;;6093174;23;20373;-76
2023/02/14 00:59:41;;;;;;;4.95;4.65;;;0.30;99.90;;;;;;6068877;23;20436;-76
2023/02/14 01:02:08;;;;;;;4.60;4.30;;;0.30;99.90;;;;;;6093911;23;20380;-76
2023/02/14 01:04:35;;;;;;;4.20;4.00;;;0.10;99.90;;;;;;6067910;23;20378;-75
2023/02/14 01:07:01;;;;;;;4.68;4.47;;;0.10;99.90;;;;;;6069239;23;20401;-76
2023/02/14 01:09:28;;;;;;;4.78;4.57;;;0.10;99.90;;;;;;6067809;23;20381;-75
2023/02/14 01:11:55;;;;;;;4.85;4.63;;;0.10;99.90;;;;;;6094262;23;20468;-75
2023/02/14 01:14:22;;;;;;;4.80;4.60;;;0.10;99.90;;;;;;6093387;23;20718;-75
2023/02/14 01:16:49;;;;;;;4.75;4.47;;;0.10;99.90;;;;;;6093993;23;20385;-76
2023/02/14 01:19:16;;;;;;;4.55;4.35;;;0.10;99.90;;;;;;6067975;23;20407;-76
2023/02/14 01:21:43;;;;;;;4.47;4.27;;;0.10;99.90;;;;;;6068686;23;20430;-76
2023/02/14 01:24:11;;;;;;;4.70;4.50;;;0.20;99.90;;;;;;6067997;23;20377;-75
2023/02/14 01:26:39;;;;;;;4.75;4.55;;;0.20;99.90;;;;;;6093865;23;20897;-76
2023/02/14 01:29:07;;;;;;;4.80;4.60;;;0.20;99.90;;;;;;6067064;23;20373;-76
2023/02/14 01:31:34;;;;;;;4.32;4.13;;;0.20;99.90;;;;;;6068524;23;20365;-76
2023/02/14 01:34:02;;;;;;;4.57;4.38;;;0.10;99.90;;;;;;6069128;23;20417;-76
2023/02/14 01:36:36;;;;;;;4.63;4.43;;;0.10;99.90;;;;;;6067673;23;20405;-76
2023/02/14 01:39:10;;;;;;;4.65;4.38;;;0.00;99.90;;;;;;6068477;23;20470;-76
2023/02/14 01:41:40;;;;;;;4.60;4.40;;;0.00;99.90;;;;;;6092561;23;20428;-76
2023/02/14 01:44:13;;;;;;;4.35;4.15;;;-0.10;99.90;;;;;;6093831;23;20381;-75
2023/02/14 01:46:41;;;;;;;4.90;4.60;;;-0.20;99.90;;;;;;6068345;23;20902;-76
2023/02/14 01:49:10;;;;;;;5.03;4.75;;;-0.30;99.90;;;;;;6067878;23;20412;-75
2023/02/14 01:51:42;;;;;;;4.97;4.68;;;-0.40;99.90;;;;;;6067109;23;20411;-76
2023/02/14 01:54:09;;;;;;;5.45;5.15;;;-0.40;99.90;;;;;;6068342;23;20392;-75
2023/02/14 01:56:42;;;;;;;5.35;5.05;;;-0.40;99.90;;;;;;6067128;23;20385;-76
2023/02/14 01:59:14;;;;;;;4.40;4.20;;;-0.30;99.90;;;;;;6068247;23;20381;-76
2023/02/14 02:01:41;;;;;;;4.75;4.55;;;-0.40;99.90;;;;;;6068631;23;20416;-83
2023/02/14 02:04:13;;;;;;;5.43;5.13;;;-0.30;99.90;;;;;;6095416;23;20464;-84
2023/02/14 02:06:56;;;;;;;5.82;5.53;;;-0.30;99.90;;;;;;6097373;23;20360;-83
2023/02/14 02:09:51;;;;;;;5.13;4.82;;;-0.40;99.90;;;;;;6095526;23;20406;-82
2023/02/14 02:12:18;;;;;;;5.45;5.15;;;-0.50;99.90;;;;;;6123032;23;20427;-81
2023/02/14 02:14:45;;;;;;;4.57;4.38;;;-0.40;99.90;;;;;;6096518;23;20856;-82
2023/02/14 02:17:42;;;;;;;5.07;4.78;;;-0.40;99.90;;;;;;6074477;23;20438;-82
2023/02/14 02:20:25;;;;;;;5.22;4.93;;;-0.30;99.90;;;;;;6097933;23;20665;-84
2023/02/14 02:23:22;;;;;;;5.20;4.90;;;-0.30;99.90;;;;;;6122914;23;20380;-84
2023/02/14 02:26:01;;;;;;;5.00;4.80;;;-0.40;99.90;;;;;;6122938;23;20436;-83
2023/02/14 02:28:59;;;;;;;4.87;4.67;;;-0.30;99.90;;;;;;6123656;23;20512;-83
2023/02/14 02:31:53;;;;;;;4.30;4.10;;;-0.30;99.90;;;;;;6097182;23;20384;-83
2023/02/14 02:34:41;;;;;;;4.35;4.15;;;-0.30;99.90;;;;;;6097496;23;20392;-84
2023/02/14 02:37:38;;;;;;;4.95;4.65;;;-0.40;99.90;;;;;;6121530;23;20446;-83
2023/02/14 02:40:39;;;;;;;4.57;4.38;;;-0.40;99.90;;;;;;6026322;23;20427;-85
2023/02/14 02:43:37;;;;;;;4.97;4.78;;;-0.40;99.90;;;;;;6096495;23;20383;-82
2023/02/14 02:53:05;;;;;;;4.80;4.60;;;-0.50;99.90;;;;;;6092384;23;20375;-85
2023/02/14 02:58:35;;;;;;;4.43;4.22;;;-0.60;99.90;;;;;;6121031;23;20395;-83
2023/02/14 03:01:18;;;;;;;4.57;4.38;;;-0.60;99.90;;;;;;6097712;23;20444;-84
2023/02/14 03:06:34;;;;;;;4.50;4.30;;;-0.60;99.90;;;;;;6092933;23;20377;-84
2023/02/14 03:09:33;;;;;;;4.63;4.32;;;-0.60;99.90;;;;;;6093837;23;20845;-84
2023/02/14 03:12:16;;;;;;;4.50;4.30;;;-0.70;99.90;;;;;;6067929;23;20750;-83
2023/02/14 03:15:06;;;;;;;4.70;4.43;;;-0.80;99.90;;;;;;6067698;23;20381;-84
2023/02/14 03:17:53;;;;;;;4.38;4.18;;;-0.90;99.90;;;;;;6068642;23;20423;-84
2023/02/14 03:20:20;;;;;;;4.43;4.23;;;-0.90;99.90;;;;;;6093159;23;20408;-79
2023/02/14 03:22:51;;;;;;;4.55;4.35;;;-0.90;99.90;;;;;;6092552;23;20397;-83
2023/02/14 03:25:29;;;;;;;4.47;4.28;;;-0.90;99.90;;;;;;6067496;23;20448;-84
2023/02/14 03:28:14;;;;;;;4.80;4.50;;;-0.90;99.90;;;;;;6093522;23;20688;-82
2023/02/14 03:31:01;;;;;;;4.90;4.70;;;-0.90;99.90;;;;;;6068163;23;20368;-86
2023/02/14 03:33:39;;;;;;;5.72;5.43;;;-0.90;99.90;;;;;;6067578;23;20388;-85
2023/02/14 03:36:11;;;;;;;5.63;5.30;;;-0.90;99.90;;;;;;6068117;23;20500;-85
2023/02/14 03:38:48;;;;;;;5.35;5.07;;;-0.90;99.90;;;;;;6093251;23;20723;-85
2023/02/14 03:41:27;;;;;;;5.00;4.80;;;-0.90;99.90;;;;;;6068527;23;20404;-84
2023/02/14 03:43:59;;;;;;;5.15;4.95;;;-0.90;99.90;;;;;;6092683;23;20401;-84
2023/02/14 03:46:54;;;;;;;4.97;4.78;;;-0.80;99.90;;;;;;6067715;23;20388;-83
2023/02/14 03:49:28;;;;;;;4.57;4.38;;;-0.80;99.90;;;;;;6059466;23;20432;-83
2023/02/14 03:51:57;;;;;;;4.35;4.15;;;-0.90;99.90;;;;;;6068589;23;20409;-83
2023/02/14 03:54:26;;;;;;;4.32;4.13;;;-0.90;99.90;;;;;;6093031;23;20408;-84
2023/02/14 03:57:03;;;;;;;5.00;4.70;;;-1.00;99.90;;;;;;6068221;23;20762;-76
2023/02/14 03:59:30;;;;;;;5.00;4.80;;;-1.00;99.90;;;;;;6091822;23;20710;-76
2023/02/14 04:02:06;;;;;;;4.75;4.55;;;-1.10;99.90;;;;;;6066911;23;20390;-76
2023/02/14 04:04:36;;;;;;;4.70;4.50;;;-1.10;99.90;;;;;;6066570;23;20382;-76
2023/02/14 04:07:13;;;;;;;4.80;4.60;;;-1.10;99.90;;;;;;6067051;23;20967;-75
2023/02/14 04:09:40;;;;;;;7.35;6.85;;;-1.10;99.90;;;;;;6066732;23;20386;-77
2023/02/14 04:12:08;;;;;;;5.97;5.68;;;-1.10;99.90;;;;;;6066586;23;20714;-75
2023/02/14 04:14:35;;;;;;;6.15;5.75;;;-1.10;99.90;;;;;;6066456;23;20393;-76
2023/02/14 04:19:48;;;;;;;6.63;6.22;;;-1.00;99.90;;;;;;6091945;23;20448;-75
2023/02/14 04:22:15;;;;;;;6.95;6.55;;;-1.00;99.90;;;;;;6067729;23;20414;-75
2023/02/14 04:24:42;;;;;;;6.53;6.13;;;-1.00;99.90;;;;;;6091400;23;20441;-75
2023/02/14 04:27:09;;;;;;;6.45;6.05;;;-1.00;99.90;;;;;;6093656;23;20495;-75
2023/02/14 04:29:45;;;;;;;5.63;5.33;;;-1.00;99.90;;;;;;6093524;23;20389;-75
2023/02/14 04:32:17;;;;;;;5.60;5.30;;;-1.00;99.90;;;;;;6094099;23;20405;-75
2023/02/14 04:34:44;;;;;;;5.30;5.00;;;-1.00;99.90;;;;;;6068417;23;20388;-76
2023/02/14 04:37:13;;;;;;;5.35;5.05;;;-1.00;99.90;;;;;;6093947;23;20441;-75
2023/02/14 04:39:40;;;;;;;5.20;4.90;;;-1.10;99.90;;;;;;6093650;23;20899;-76
2023/02/14 04:42:07;;;;;;;5.38;5.07;;;-1.00;99.90;;;;;;6068925;23;20764;-75
2023/02/14 04:44:36;;;;;;;5.10;4.80;;;-1.20;99.90;;;;;;6068639;23;20432;-75
2023/02/14 04:47:04;;;;;;;4.93;4.63;;;-1.20;99.90;;;;;;6093729;23;20683;-75
2023/02/14 04:49:32;;;;;;;5.18;4.88;;;-1.20;99.90;;;;;;6093777;23;20404;-76
2023/02/14 04:52:00;;;;;;;4.95;4.65;;;-1.10;99.90;;;;;;6069388;23;20389;-76
2023/02/14 04:54:27;;;;;;;5.47;5.18;;;-1.10;99.90;;;;;;6067862;23;20413;-76
2023/02/14 04:56:54;;;;;;;5.60;5.25;;;-1.10;99.90;;;;;;6068858;23;20425;-75
2023/02/14 04:59:21;;;;;;;5.45;5.15;;;-1.10;99.90;;;;;;6094272;23;20420;-75
2023/02/14 05:01:51;;;;;;;5.70;5.40;;;-1.10;99.90;;;;;;6068309;23;20388;-75
2023/02/14 05:04:18;;;;;;;5.17;4.97;;;-1.10;99.90;;;;;;6068929;23;20504;-75
2023/02/14 05:06:45;;;;;;;5.28;4.97;;;-1.00;99.90;;;;;;6067518;23;20385;-76
2023/02/14 05:09:13;;;;;;;5.00;4.80;;;-1.10;99.90;;;;;;6069226;23;20397;-75
2023/02/14 05:11:40;;;;;;;4.50;4.20;;;-1.20;99.90;;;;;;6068056;23;20424;-76
2023/02/14 05:14:07;;;;;;;4.70;4.50;;;-1.20;99.90;;;;;;6068957;23;20767;-76
2023/02/14 05:16:34;;;;;;;4.90;4.60;;;-1.20;99.90;;;;;;6067478;23;20523;-76
2023/02/14 05:19:01;;;;;;;4.50;4.30;;;-1.20;99.90;;;;;;6069165;23;20381;-76
2023/02/14 05:21:31;;;;;;;4.40;4.20;;;-1.30;99.90;;;;;;6092656;23;20416;-76
2023/02/14 05:24:01;;;;;;;4.97;4.78;;;-1.30;99.90;;;;;;6093854;23;20687;-76
2023/02/14 05:26:28;;;;;;;5.07;4.78;;;-1.40;99.90;;;;;;6067383;23;20486;-76
2023/02/14 05:28:55;;;;;;;5.72;5.43;;;-1.40;99.90;;;;;;6068790;23;20440;-76
2023/02/14 05:31:22;;;;;;;6.47;6.07;;;-1.50;99.90;;;;;;6068609;23;20885;-76
2023/02/14 05:33:49;;;;;;;6.07;5.78;;;-1.50;99.90;;;;;;6068182;23;20750;-76
2023/02/14 05:36:16;;;;;;;6.40;6.00;;;-1.40;99.90;;;;;;6068102;23;20381;-76
2023/02/14 05:38:43;;;;;;;6.40;6.00;;;-1.40;99.90;;;;;;6092365;23;20713;-76
2023/02/14 05:41:10;;;;;;;6.72;6.32;;;-1.40;99.90;;;;;;6068659;23;20392;-76
2023/02/14 05:43:37;;;;;;;6.13;5.72;;;-1.40;99.90;;;;;;6068117;23;20428;-76
2023/02/14 05:46:04;;;;;;;6.50;6.10;;;-1.40;99.90;;;;;;6068275;23;20830;-76
2023/02/14 05:48:31;;;;;;;6.78;6.38;;;-1.40;99.90;;;;;;6092881;23;20380;-76
2023/02/14 05:51:06;;;;;;;7.05;6.65;;;-1.40;99.90;;;;;;6068512;23;20790;-76
2023/02/14 05:53:34;;;;;;;6.57;6.18;;;-1.40;99.90;;;;;;6041617;23;20953;-76
2023/02/14 05:56:01;;;;;;;5.80;5.50;;;-1.40;99.90;;;;;;6068736;23;20386;-76
2023/02/14 05:58:27;;;;;;;6.13;5.73;;;-1.40;99.90;;;;;;6068390;23;20392;-76
2023/02/14 06:00:58;;;;;;;5.22;4.93;;;-1.40;99.90;;;;;;6067912;23;20381;-76
2023/02/14 06:03:26;;;;;;;5.63;5.30;;;-1.40;99.90;;;;;;6062972;23;20383;-76
2023/02/14 06:05:53;;;;;;;5.20;4.90;;;-1.40;99.90;;;;;;6062765;23;20402;-76
2023/02/14 06:08:20;;;;;;;5.20;4.90;;;-1.50;99.90;;;;;;6063318;23;20383;-76
2023/02/14 06:10:47;;;;;;;4.90;4.70;;;-1.50;99.90;;;;;;6062318;23;20428;-76
2023/02/14 06:13:14;;;;;;;5.40;5.10;;;-1.50;99.90;;;;;;6063362;23;20375;-76
2023/02/14 06:15:41;;;;;;;5.93;5.63;;;-1.60;99.90;;;;;;6062493;23;20383;-76
2023/02/14 06:18:08;;;;;;;8.20;7.70;;;-1.70;99.90;;;;;;6061769;23;20380;-76
2023/02/14 06:20:35;;;;;;;8.47;7.87;;;-1.60;99.90;;;;;;6063909;23;20401;-76
2023/02/14 06:23:02;;;;;;;8.80;8.25;;;-1.60;99.90;;;;;;6061438;23;20386;-76
2023/02/14 06:25:31;;;;;;;7.80;7.30;;;-1.40;99.90;;;;;;6062594;23;20438;-77
2023/02/14 06:27:58;;;;;;;7.13;6.73;;;-1.40;99.90;;;;;;6064074;23;20434;-77
2023/02/14 06:30:26;;;;;;;6.10;5.80;;;-1.40;99.90;;;;;;6062526;23;20391;-77
2023/02/14 06:32:55;;;;;;;6.23;5.83;;;-1.50;99.90;;;;;;6062608;23;20460;-76
2023/02/14 06:35:22;;;;;;;7.70;7.20;;;-1.50;99.90;;;;;;6064587;23;20387;-76
2023/02/14 06:37:49;;;;;;;7.77;7.37;;;-1.50;99.90;;;;;;6060857;23;20379;-76
2023/02/14 06:40:18;;;;;;;7.72;7.22;;;-1.50;99.90;;;;;;6064400;23;20387;-76
2023/02/14 06:42:45;;;;;;;5.57;5.27;;;-1.50;99.90;;;;;;6062344;23;20452;-77
2023/02/14 06:45:12;;;;;;;5.75;5.45;;;-1.50;99.90;;;;;;6064358;23;20410;-77
2023/02/14 06:47:39;;;;;;;5.95;5.55;;;-1.60;99.90;;;;;;6063769;23;20411;-76
2023/02/14 06:50:06;;;;;;;6.32;5.93;;;-1.70;99.90;;;;;;6062389;23;20694;-77
2023/02/14 06:52:33;;;;;;;6.60;6.20;;;-1.80;99.90;;;;;;6063415;23;20413;-76
2023/02/14 06:55:00;;;;;;;6.32;6.03;;;-1.70;99.90;;;;;;6061821;23;20397;-76
2023/02/14 06:57:27;;;;;;;7.07;6.57;;;-1.60;99.90;;;;;;6063131;23;20434;-77
2023/02/14 06:59:54;;;;;;;6.90;6.50;;;-1.50;99.90;;;;;;6063373;23;20455;-76
2023/02/14 07:02:21;;;;;;;6.53;6.13;;;-1.20;99.90;;;;;;6062062;23;20821;-76
2023/02/14 07:04:50;;;;;;;7.00;6.60;;;-1.20;99.90;;;;;;6062245;23;20417;-77
2023/02/14 07:07:17;;;;;;;7.47;7.00;;;-1.10;99.90;;;;;;6063531;23;20383;-76
2023/02/14 07:09:44;;;;;;;6.57;6.28;;;-1.00;99.90;;;;;;6062308;23;20395;-76
2023/02/14 07:12:11;;;;;;;6.70;6.30;;;-0.90;99.90;;;;;;6061847;23;20766;-75
2023/02/14 07:14:38;;;;;;;6.90;6.50;;;-1.00;99.90;;;;;;6061966;23;20451;-76
2023/02/14 07:17:05;;;;;;;6.70;6.30;;;-0.90;99.90;;;;;;6062191;23;20375;-75
2023/02/14 07:19:32;;;;;;;6.30;5.90;;;-0.90;99.90;;;;;;6062382;23;20379;-76
2023/02/14 07:21:59;;;;;;;6.65;6.15;;;-0.90;99.90;;;;;;6060078;23;20371;-75
2023/02/14 07:24:26;;;;;;;5.93;5.63;;;-0.80;99.90;;;;;;6061871;23;20439;-76
2023/02/14 07:26:53;;;;;;;6.35;5.85;;;-0.80;99.90;;;;;;6061232;23;20757;-76
2023/02/14 07:29:21;;;;;;;5.70;5.40;;;-0.80;99.90;;;;;;6051292;23;20781;-77
2023/02/14 07:31:48;;;;;;;5.78;5.38;;;-0.70;99.90;;;;;;6057117;23;20383;-75
2023/02/14 07:34:15;;;;;;;6.22;5.82;;;-0.60;99.90;;;;;;6060250;23;20765;-76
2023/02/14 07:36:43;;;;;;;6.18;5.85;;;-0.50;99.90;;;;;;6063672;23;20756;-76
2023/02/14 07:39:10;;;;;;;5.65;5.35;;;-0.40;99.90;;;;;;6062160;23;20418;-75
2023/02/14 07:41:37;;;;;;;6.00;5.65;;;-0.20;99.90;;;;;;6062869;23;20379;-75
2023/02/14 07:44:04;;;;;;;6.38;5.90;;;0.00;99.90;;;;;;6061378;23;20453;-75
2023/02/14 07:46:31;;;;;;;6.55;6.15;;;0.30;99.90;;;;;;6062994;23;20450;-75
2023/02/14 07:48:58;;;;;;;5.95;5.65;;;0.60;99.90;;;;;;6060837;23;20386;-76
2023/02/14 07:51:25;;;;;;;6.10;5.80;;;1.00;99.90;;;;;;6064152;23;20442;-75
2023/02/14 07:53:51;;;;;;;5.57;5.28;;;1.20;99.90;;;;;;6061255;23;20466;-76
2023/02/14 07:56:19;;;;;;;6.03;5.72;;;1.50;99.90;;;;;;6062372;23;20387;-75
2023/02/14 07:58:46;;;;;;;6.10;5.70;;;1.80;99.90;;;;;;6061638;23;20418;-76
2023/02/14 08:01:12;;;;;;;6.07;5.75;;;2.10;99.90;;;;;;6062000;23;20451;-75
2023/02/14 08:03:39;;;;;;;5.82;5.43;;;2.40;99.90;;;;;;6062104;23;20383;-75
2023/02/14 08:06:06;;;;;;;5.38;5.07;;;2.70;99.90;;;;;;6060825;23;20382;-76
2023/02/14 08:08:33;;;;;;;5.35;5.05;;;2.90;99.90;;;;;;6063485;23;20383;-75
2023/02/14 08:11:00;;;;;;;5.57;5.18;;;3.20;99.90;;;;;;6061191;23;20387;-76
2023/02/14 08:13:28;;;;;;;5.30;5.00;;;3.50;99.90;;;;;;6063653;23;20379;-75
2023/02/14 08:16:04;;;;;;;4.97;4.70;;;3.80;99.00;;;;;;6061060;23;20422;-76
2023/02/14 08:18:40;;;;;;;5.63;5.32;;;4.00;97.50;;;;;;6062439;23;20700;-76
2023/02/14 08:21:09;;;;;;;4.97;4.68;;;4.30;96.00;;;;;;6061467;23;20444;-76
2023/02/14 08:23:36;;;;;;;4.85;4.55;;;4.50;95.50;;;;;;6062739;23;20375;-76
2023/02/14 08:26:04;;;;;;;5.18;4.88;;;4.70;94.30;;;;;;6061346;23;20383;-76
2023/02/14 08:28:31;;;;;;;5.03;4.77;;;4.80;94.70;;;;;;6062622;23;20391;-76
2023/02/14 08:30:59;;;;;;;5.20;4.90;;;5.00;94.10;;;;;;6061220;23;20781;-76
2023/02/14 08:33:27;;;;;;;4.80;4.60;;;5.30;92.50;;;;;;6062623;23;20387;-76
2023/02/14 08:35:54;;;;;;;4.68;4.47;;;5.50;91.20;;;;;;6061488;23;20442;-76
2023/02/14 08:38:21;;;;;;;4.60;4.40;;;5.70;89.80;;;;;;6062510;23;20746;-76
2023/02/14 08:40:48;;;;;;;5.00;4.70;;;5.90;86.80;;;;;;6061118;23;20475;-76
2023/02/14 08:43:15;;;;;;;4.95;4.65;;;6.10;83.90;;;;;;6063607;23;20908;-76
2023/02/14 08:45:42;;;;;;;4.13;3.93;;;6.20;83.10;;;;;;6062914;23;20851;-75
2023/02/14 08:48:11;;;;;;;4.63;4.43;;;6.40;82.00;;;;;;6061183;23;20384;-76
2023/02/14 08:50:39;;;;;;;4.68;4.28;;;6.60;81.10;;;;;;6061823;23;20528;-77
2023/02/14 08:53:11;;;;;;;4.45;4.25;;;6.80;78.30;;;;;;6061594;23;20387;-76
2023/02/14 08:55:39;;;;;;;4.30;4.00;;;7.00;77.20;;;;;;6061896;23;20403;-76
2023/02/14 08:58:07;;;;;;;4.40;4.20;;;7.10;75.00;;;;;;6061130;23;20379;-77
2023/02/14 09:00:34;;;;;;;4.38;4.05;;;7.30;73.80;;;;;;6063557;23;20708;-76
2023/02/14 09:03:01;;;;;;;4.63;4.43;;;7.40;71.70;;;;;;6061091;23;20430;-76
2023/02/14 09:05:28;;;;;;;5.72;5.43;;;7.50;72.00;;;;;;6061814;23;20382;-76
2023/02/14 09:07:55;;;;;;;4.20;4.00;;;7.60;74.30;;;;;;6061479;23;20383;-77
2023/02/14 09:10:24;;;;;;;5.20;4.90;;;7.80;71.40;;;;;;6062086;23;20411;-77
2023/02/14 09:12:51;;;;;;;7.10;6.63;;;8.00;71.00;;;;;;6015131;23;20387;-76
2023/02/14 09:15:18;;;;;;;5.17;4.97;;;8.20;68.10;;;;;;6063911;23;20407;-76
2023/02/14 09:17:46;;;;;;;5.63;5.32;;;8.30;66.70;;;;;;6064324;23;20430;-77
2023/02/14 09:20:14;;;;;;;6.38;5.97;;;8.50;68.70;;;;;;6039124;23;20485;-76
2023/02/14 09:22:42;;;;;;;4.80;4.57;;;8.60;66.50;;;;;;6064971;23;20771;-77
2023/02/14 09:25:09;;;;;;;5.95;5.65;;;8.70;66.70;;;;;;6063086;23;20391;-76
2023/02/14 09:27:36;;;;;;;4.63;4.43;;;8.80;67.20;;;;;;6063167;23;20864;-76
2023/02/14 09:30:05;;;;;;;5.10;4.80;;;8.90;67.50;;;;;;6064682;23;20395;-76
2023/02/14 09:32:32;;;;;;;4.70;4.50;;;9.00;67.10;;;;;;6063267;23;20383;-76
2023/02/14 09:37:44;;;;;;;10.25;9.65;;;9.10;65.80;;;;;;6064818;23;20415;-76
2023/02/14 09:40:14;;;;;;;5.65;5.35;;;9.00;63.10;;;;;;6063933;23;20410;-76
2023/02/14 09:42:54;;;;;;;4.10;3.90;;;9.10;63.80;;;;;;6063624;23;20375;-76
2023/02/14 09:45:25;;;;;;;4.88;4.57;;;9.40;63.30;;;;;;6062440;23;20387;-77
2023/02/14 09:48:13;;;;;;;4.90;4.60;;;9.60;62.70;;;;;;6063975;23;20393;-76
2023/02/14 09:50:51;;;;;;;6.85;6.45;;;9.60;60.80;;;;;;6062389;23;20383;-77
2023/02/14 09:53:31;;;;;;;4.67;4.43;;;9.80;61.50;;;;;;6062259;23;20460;-76
2023/02/14 09:56:18;;;;;;;4.28;3.97;;;9.90;60.80;;;;;;6063735;23;20443;-76
2023/02/14 09:59:01;;;;;;;4.25;4.05;;;10.00;60.60;;;;;;6062712;23;20375;-77
2023/02/14 10:01:45;;;;;;;3.92;3.72;;;10.20;60.20;;;;;;6063360;23;20465;-76
2023/02/14 10:04:30;;;;;;;3.80;3.60;;;10.10;58.50;;;;;;6063320;23;20878;-76
2023/02/14 10:07:15;;;;;;;4.53;4.22;;;10.40;58.60;;;;;;6062892;23;20371;-77
2023/02/14 10:10:01;;;;;;;3.70;3.50;;;10.60;57.20;;;;;;6062646;23;20388;-76
2023/02/14 10:12:34;;;;;;;3.60;3.40;;;10.70;56.50;;;;;;6063617;23;20764;-77
2023/02/14 10:15:12;;;;;;;2.92;2.83;;;10.90;55.90;;;;;;6062448;23;20371;-76
2023/02/14 10:17:48;;;;;;;3.30;3.10;;;11.10;55.50;;;;;;6062915;23;20415;-76
2023/02/14 10:20:29;;;;;;;3.22;3.03;;;11.10;52.30;;;;;;6064460;23;20458;-78
2023/02/14 10:23:20;;;;;;;3.10;3.00;;;11.30;53.10;;;;;;6063514;23;20462;-77
2023/02/14 10:26:02;;;;;;;2.95;2.85;;;11.50;52.60;;;;;;6062253;23;20383;-76
2023/02/14 10:28:45;;;;;;;2.63;2.53;;;11.50;52.20;;;;;;6063249;23;20383;-76
2023/02/14 10:31:30;;;;;;;2.40;2.20;;;11.70;49.90;;;;;;6063650;23;20379;-77
2023/02/14 10:34:00;;;;;;;2.65;2.55;;;11.80;49.00;;;;;;6062276;23;20410;-75
2023/02/14 10:36:33;;;;;;;2.70;2.60;;;11.90;48.10;;;;;;6062870;23;20465;-77
2023/02/14 10:39:24;;;;;;;2.47;2.38;;;12.00;47.90;;;;;;6061819;23;20805;-78
2023/02/14 10:42:28;;;;;;;3.33;2.88;;;11.90;48.10;;;;;;6062095;23;20761;-77
2023/02/14 10:45:11;;;;;;;2.83;2.72;;;11.80;47.90;;;;;;6051169;23;20728;-77
2023/02/14 10:48:12;;;;;;;2.42;2.28;;;11.80;47.50;;;;;;6063172;23;20403;-76
2023/02/14 10:50:49;;;;;;;2.53;2.42;;;12.00;48.50;;;;;;6063742;23;20381;-77
2023/02/14 10:53:38;;;;;;;2.17;2.08;;;12.30;47.30;;;;;;6062153;23;20378;-77
2023/02/14 10:56:17;;;;;;;2.30;2.20;;;12.40;45.30;;;;;;6063296;23;20414;-77
2023/02/14 10:58:45;;;;;;;2.83;2.72;;;12.50;45.80;;;;;;6061965;23;20399;-77
2023/02/14 11:01:17;;;;;;;2.88;2.67;;;12.50;44.40;;;;;;6062920;23;20761;-77
2023/02/14 11:03:54;;;;;;;3.20;3.10;;;12.60;44.20;;;;;;6061662;23;20371;-76
2023/02/14 11:06:21;;;;;;;3.25;3.05;;;12.80;46.10;;;;;;6062038;23;20435;-77
2023/02/14 11:08:48;;;;;;;3.22;3.03;;;12.90;45.60;;;;;;6062642;23;20450;-76
2023/02/14 11:11:20;;;;;;;3.33;3.15;;;12.80;45.70;;;;;;6064402;23;20856;-77
2023/02/14 11:13:47;;;;;;;3.85;3.65;;;13.00;45.60;;;;;;6062322;23;20379;-76
2023/02/14 11:16:29;;;;;;;3.40;3.20;;;12.70;45.40;;;;;;6062786;23;20449;-78
2023/02/14 11:19:14;;;;;;;2.83;2.72;;;12.70;45.00;;;;;;6062536;23;20375;-77
2023/02/14 11:21:44;;;;;;;3.30;3.10;;;13.00;46.10;;;;;;6061552;23;20382;-76
2023/02/14 11:24:26;;;;;;;3.13;3.03;;;13.20;45.30;;;;;;6062880;23;20379;-76
2023/02/14 11:27:24;;;;;;;3.60;3.40;;;13.30;46.10;;;;;;6062221;23;20367;-76
2023/02/14 11:29:51;;;;;;;3.30;3.10;;;13.40;46.20;;;;;;6057559;23;20383;-76
2023/02/14 11:32:28;;;;;;;3.95;3.75;;;13.60;45.30;;;;;;6062939;23;20711;-76
2023/02/14 11:35:01;;;;;;;3.90;3.60;;;13.70;43.90;;;;;;6062126;23;20383;-78
2023/02/14 11:37:30;;;;;;;4.20;3.92;;;13.90;43.80;;;;;;6060985;23;20419;-76
2023/02/14 11:40:00;;;;;;;4.03;3.83;;;13.80;43.40;;;;;;6036389;23;20385;-76
2023/02/14 11:42:35;;;;;;;4.22;3.92;;;14.00;44.20;;;;;;6063419;23;20426;-77
2023/02/14 11:45:04;;;;;;;3.70;3.50;;;14.20;44.00;;;;;;6061699;23;20430;-77
2023/02/14 11:47:33;;;;;;;3.72;3.53;;;14.20;43.30;;;;;;6062232;23;20439;-76
2023/02/14 11:50:09;;;;;;;3.80;3.50;;;14.20;44.70;;;;;;6061122;23;20446;-79
2023/02/14 11:52:53;;;;;;;4.03;3.83;;;14.10;44.00;;;;;;6061927;23;20430;-76
2023/02/14 11:55:32;;;;;;;4.22;3.92;;;14.30;43.30;;;;;;6060716;23;20386;-79
2023/02/14 11:58:01;;;;;;;3.83;3.60;;;14.60;42.30;;;;;;6061362;23;20387;-77
2023/02/14 12:00:30;;;;;;;3.70;3.50;;;14.90;42.50;;;;;;6062246;23;20712;-76
2023/02/14 12:03:00;;;;;;;3.47;3.37;;;15.10;41.90;;;;;;6060792;23;20382;-76
2023/02/14 12:05:34;;;;;;;3.55;3.35;;;15.20;40.00;;;;;;6062235;23;20442;-77
2023/02/14 12:08:03;;;;;;;3.95;3.75;;;15.30;40.60;;;;;;6060779;23;20382;-77
2023/02/14 12:10:34;;;;;;;3.57;3.37;;;15.60;40.40;;;;;;6058598;23;20386;-75
2023/02/14 12:13:06;;;;;;;3.72;3.53;;;15.60;39.20;;;;;;6060165;23;20422;-77
2023/02/14 12:15:36;;;;;;;3.55;3.35;;;15.50;38.20;;;;;;6062035;23;20379;-76
2023/02/14 12:18:37;;;;;;;3.28;3.10;;;15.20;39.80;;;;;;6061028;23;20391;-76
2023/02/14 12:21:37;;;;;;;4.00;3.70;;;15.40;39.60;;;;;;6060940;23;20391;-77
2023/02/14 12:24:31;;;;;;;3.60;3.40;;;15.20;40.10;;;;;;6060840;23;20876;-77
2023/02/14 12:27:20;;;;;;;3.67;3.47;;;15.30;40.90;;;;;;6061049;23;20406;-78
2023/02/14 12:30:08;;;;;;;3.80;3.50;;;15.50;40.10;;;;;;6062056;23;20765;-76
2023/02/14 12:32:35;;;;;;;3.55;3.35;;;15.40;39.80;;;;;;6059802;23;20399;-78
2023/02/14 12:35:34;;;;;;;3.85;3.65;;;15.70;39.00;;;;;;6063788;23;20434;-74
2023/02/14 12:38:19;;;;;;;3.10;3.00;;;15.90;38.50;;;;;;6038214;23;20410;-77
2023/02/14 12:41:04;;;;;;;3.20;3.00;;;15.50;38.10;;;;;;6061442;23;20481;-74
2023/02/14 12:43:37;;;;;;;3.50;3.30;;;15.80;38.90;;;;;;6061942;23;20468;-76
2023/02/14 12:46:19;;;;;;;3.60;3.40;;;16.10;39.10;;;;;;6060960;23;20402;-75
2023/02/14 12:49:12;;;;;;;3.70;3.50;;;16.20;38.70;;;;;;6065014;23;20379;-75
2023/02/14 12:51:59;;;;;;;3.60;3.40;;;16.40;38.70;;;;;;6064264;23;20403;-75
2023/02/14 12:54:41;;;;;;;3.70;3.50;;;16.30;38.40;;;;;;6044465;23;20375;-75
2023/02/14 12:57:34;;;;;;;3.70;3.50;;;16.40;39.00;;;;;;6063408;23;20387;-74
2023/02/14 13:00:08;;;;;;;3.55;3.35;;;16.60;38.30;;;;;;6064064;23;20379;-75
2023/02/14 13:03:07;;;;;;;4.03;3.83;;;16.90;38.40;;;;;;6062977;23;20682;-75
2023/02/14 13:06:11;;;;;;;3.90;3.70;;;16.80;37.50;;;;;;6063054;23;20964;-75
2023/02/14 13:09:00;;;;;;;4.00;3.80;;;16.30;39.20;;;;;;6064284;23;20363;-75
2023/02/14 13:11:52;;;;;;;4.32;4.03;;;16.40;39.10;;;;;;6063286;23;20375;-75
2023/02/14 13:14:40;;;;;;;4.20;3.90;;;16.10;39.40;;;;;;6063046;23;20382;-75
2023/02/14 13:17:22;;;;;;;4.20;3.90;;;15.70;39.90;;;;;;6063773;23;20387;-75
2023/02/14 13:20:07;;;;;;;3.70;3.50;;;15.70;40.50;;;;;;6038889;23;20409;-75
2023/02/14 13:22:34;;;;;;;4.10;3.90;;;15.70;40.30;;;;;;6063165;23;20379;-74
2023/02/14 13:25:20;;;;;;;4.40;4.20;;;15.80;40.70;;;;;;6063338;23;20418;-74
2023/02/14 13:27:48;;;;;;;4.30;4.10;;;16.20;40.20;;;;;;6062712;23;20417;-74
2023/02/14 13:30:33;;;;;;;4.22;4.03;;;16.60;39.60;;;;;;6065595;23;20506;-74
2023/02/14 13:33:06;;;;;;;4.20;3.92;;;16.70;39.70;;;;;;6062766;23;20393;-77
2023/02/14 13:35:33;;;;;;;5.40;5.10;;;16.80;40.00;;;;;;6063106;23;20391;-76
2023/02/14 13:38:10;;;;;;;6.78;6.28;;;16.80;39.70;;;;;;6062680;23;20874;-78